sensor_id;sensor_type;location;lat;lon;timestamp;temperature;humidity
41080;DHT22;26826;50.718;7.114;2022-09-14T00:02:17;19.00;99.90
41080;DHT22;26826;50.718;7.114;2022-09-14T00:12:18;18.90;99.90
41080;DHT22;26826;50.718;7.114;2022-09-14T00:22:19;18.80;99.90
41080;DHT22;26826;50.718;7.114;2022-09-14T00:32:19;18.80;99.90
41080;DHT22;26826;50.718;7.114;2022-09-14T00:42:20;18.80;99.90
41080;DHT22;26826;50.718;7.114;2022-09-14T00:52:31;18.80;99.90
41080;DHT22;26826;50.718;7.114;2022-09-14T01:02:33;18.70;99.90
41080;DHT22;26826;50.718;7.114;2022-09-14T01:12:40;18.90;99.90
41080;DHT22;26826;50.718;7.114;2022-09-14T01:23:00;18.80;99.90
41080;DHT22;26826;50.718;7.114;2022-09-14T01:33:20;18.80;99.90
41080;DHT22;26826;50.718;7.114;2022-09-14T01:43:30;18.70;99.90
41080;DHT22;26826;50.718;7.114;2022-09-14T01:54:27;18.60;99.90
41080;DHT22;26826;50.718;7.114;2022-09-14T02:04:11;18.60;99.90
41080;DHT22;26826;50.718;7.114;2022-09-14T02:14:12;18.50;99.90
41080;DHT22;26826;50.718;7.114;2022-09-14T02:24:13;18.50;99.90
41080;DHT22;26826;50.718;7.114;2022-09-14T02:44:47;18.50;99.90
41080;DHT22;26826;50.718;7.114;2022-09-14T02:54:56;18.50;99.90
41080;DHT22;26826;50.718;7.114;2022-09-14T03:04:58;18.40;99.90
41080;DHT22;26826;50.718;7.114;2022-09-14T03:14:58;18.40;99.90
41080;DHT22;26826;50.718;7.114;2022-09-14T03:24:59;18.40;99.90
41080;DHT22;26826;50.718;7.114;2022-09-14T03:34:59;18.40;99.90
41080;DHT22;26826;50.718;7.114;2022-09-14T03:45:00;18.50;99.90
41080;DHT22;26826;50.718;7.114;2022-09-14T03:55:02;18.60;99.90
41080;DHT22;26826;50.718;7.114;2022-09-14T04:05:03;18.60;99.90
41080;DHT22;26826;50.718;7.114;2022-09-14T04:15:05;18.50;99.90
41080;DHT22;26826;50.718;7.114;2022-09-14T04:25:06;18.60;99.90
41080;DHT22;26826;50.718;7.114;2022-09-14T04:35:06;18.50;99.90
41080;DHT22;26826;50.718;7.114;2022-09-14T04:45:07;18.50;99.90
41080;DHT22;26826;50.718;7.114;2022-09-14T04:55:08;18.30;99.90
41080;DHT22;26826;50.718;7.114;2022-09-14T05:05:09;18.30;99.90
41080;DHT22;26826;50.718;7.114;2022-09-14T05:15:10;18.30;99.90
41080;DHT22;26826;50.718;7.114;2022-09-14T05:25:10;18.40;99.90
41080;DHT22;26826;50.718;7.114;2022-09-14T05:35:11;18.30;99.90
41080;DHT22;26826;50.718;7.114;2022-09-14T05:45:11;18.30;99.90
41080;DHT22;26826;50.718;7.114;2022-09-14T05:55:12;18.40;99.90
41080;DHT22;26826;50.718;7.114;2022-09-14T06:05:22;18.30;99.90
41080;DHT22;26826;50.718;7.114;2022-09-14T06:15:24;18.30;99.90
41080;DHT22;26826;50.718;7.114;2022-09-14T06:25:25;18.50;99.90
41080;DHT22;26826;50.718;7.114;2022-09-14T06:35:27;18.50;99.90
41080;DHT22;26826;50.718;7.114;2022-09-14T06:45:31;18.40;99.90
41080;DHT22;26826;50.718;7.114;2022-09-14T06:55:36;18.50;99.90
41080;DHT22;26826;50.718;7.114;2022-09-14T07:05:36;18.40;99.90
41080;DHT22;26826;50.718;7.114;2022-09-14T07:15:37;18.40;99.90
41080;DHT22;26826;50.718;7.114;2022-09-14T07:25:37;18.50;99.90
41080;DHT22;26826;50.718;7.114;2022-09-14T07:35:37;18.50;99.90
41080;DHT22;26826;50.718;7.114;2022-09-14T07:45:38;18.50;99.90
41080;DHT22;26826;50.718;7.114;2022-09-14T07:55:39;18.40;99.90
41080;DHT22;26826;50.718;7.114;2022-09-14T08:05:40;18.60;99.90
41080;DHT22;26826;50.718;7.114;2022-09-14T08:15:40;18.70;99.90
41080;DHT22;26826;50.718;7.114;2022-09-14T08:25:41;19.00;99.90
41080;DHT22;26826;50.718;7.114;2022-09-14T08:35:43;18.90;99.90
41080;DHT22;26826;50.718;7.114;2022-09-14T08:45:43;18.90;99.90
41080;DHT22;26826;50.718;7.114;2022-09-14T09:06:05;19.00;99.90
41080;DHT22;26826;50.718;7.114;2022-09-14T09:16:09;19.00;99.90
41080;DHT22;26826;50.718;7.114;2022-09-14T09:26:37;18.90;99.90
41080;DHT22;26826;50.718;7.114;2022-09-14T09:36:40;19.20;99.90
41080;DHT22;26826;50.718;7.114;2022-09-14T09:46:57;19.10;99.90
41080;DHT22;26826;50.718;7.114;2022-09-14T09:57:02;18.80;99.90
41080;DHT22;26826;50.718;7.114;2022-09-14T10:07:03;18.60;99.90
41080;DHT22;26826;50.718;7.114;2022-09-14T10:17:19;18.90;99.90
41080;DHT22;26826;50.718;7.114;2022-09-14T10:27:43;18.90;99.90
41080;DHT22;26826;50.718;7.114;2022-09-14T10:37:56;19.00;99.90
41080;DHT22;26826;50.718;7.114;2022-09-14T10:58:21;18.80;99.90
41080;DHT22;26826;50.718;7.114;2022-09-14T11:08:31;18.70;99.90
41080;DHT22;26826;50.718;7.114;2022-09-14T11:28:46;18.30;99.90
41080;DHT22;26826;50.718;7.114;2022-09-14T11:38:58;18.40;99.90
41080;DHT22;26826;50.718;7.114;2022-09-14T12:09:41;18.60;99.90
41080;DHT22;26826;50.718;7.114;2022-09-14T12:19:44;18.80;99.90
41080;DHT22;26826;50.718;7.114;2022-09-14T12:29:45;19.00;99.90
41080;DHT22;26826;50.718;7.114;2022-09-14T12:40:21;19.10;99.90
41080;DHT22;26826;50.718;7.114;2022-09-14T12:50:25;19.40;99.90
41080;DHT22;26826;50.718;7.114;2022-09-14T13:00:42;19.20;99.90
41080;DHT22;26826;50.718;7.114;2022-09-14T13:10:46;18.90;99.90
41080;DHT22;26826;50.718;7.114;2022-09-14T13:20:53;18.70;99.90
41080;DHT22;26826;50.718;7.114;2022-09-14T13:30:59;18.70;99.90
41080;DHT22;26826;50.718;7.114;2022-09-14T13:41:08;18.60;99.90
41080;DHT22;26826;50.718;7.114;2022-09-14T13:51:12;18.60;99.90
41080;DHT22;26826;50.718;7.114;2022-09-14T14:01:25;18.50;99.90
41080;DHT22;26826;50.718;7.114;2022-09-14T14:11:52;18.50;99.90
41080;DHT22;26826;50.718;7.114;2022-09-14T14:21:51;18.50;99.90
41080;DHT22;26826;50.718;7.114;2022-09-14T14:32:10;18.50;99.90
41080;DHT22;26826;50.718;7.114;2022-09-14T14:42:13;18.30;99.90
41080;DHT22;26826;50.718;7.114;2022-09-14T14:52:14;18.10;99.90
41080;DHT22;26826;50.718;7.114;2022-09-14T15:02:14;17.90;99.90
41080;DHT22;26826;50.718;7.114;2022-09-14T15:12:15;17.60;99.90
41080;DHT22;26826;50.718;7.114;2022-09-14T15:22:15;17.40;99.90
41080;DHT22;26826;50.718;7.114;2022-09-14T15:32:16;17.40;99.90
41080;DHT22;26826;50.718;7.114;2022-09-14T15:42:17;17.30;99.90
41080;DHT22;26826;50.718;7.114;2022-09-14T15:52:18;17.30;99.90
41080;DHT22;26826;50.718;7.114;2022-09-14T16:02:19;17.30;99.90
41080;DHT22;26826;50.718;7.114;2022-09-14T16:12:19;17.30;99.90
41080;DHT22;26826;50.718;7.114;2022-09-14T16:22:20;17.30;99.90
41080;DHT22;26826;50.718;7.114;2022-09-14T16:32:21;17.20;99.90
41080;DHT22;26826;50.718;7.114;2022-09-14T16:42:21;17.10;99.90
41080;DHT22;26826;50.718;7.114;2022-09-14T16:52:22;17.10;99.90
41080;DHT22;26826;50.718;7.114;2022-09-14T17:02:22;17.10;99.90
41080;DHT22;26826;50.718;7.114;2022-09-14T17:12:23;17.00;99.90
41080;DHT22;26826;50.718;7.114;2022-09-14T17:22:23;16.80;99.90
41080;DHT22;26826;50.718;7.114;2022-09-14T17:32:24;16.80;99.90
41080;DHT22;26826;50.718;7.114;2022-09-14T17:42:25;16.80;99.90
41080;DHT22;26826;50.718;7.114;2022-09-14T17:52:26;16.70;99.90
41080;DHT22;26826;50.718;7.114;2022-09-14T18:02:26;16.70;99.90
41080;DHT22;26826;50.718;7.114;2022-09-14T18:12:27;16.70;99.90
41080;DHT22;26826;50.718;7.114;2022-09-14T18:22:31;16.40;99.90
41080;DHT22;26826;50.718;7.114;2022-09-14T18:32:32;16.50;99.90
41080;DHT22;26826;50.718;7.114;2022-09-14T18:42:33;16.40;99.90
41080;DHT22;26826;50.718;7.114;2022-09-14T18:52:34;16.40;99.90
41080;DHT22;26826;50.718;7.114;2022-09-14T19:02:34;16.50;99.90
41080;DHT22;26826;50.718;7.114;2022-09-14T19:12:35;16.40;99.90
41080;DHT22;26826;50.718;7.114;2022-09-14T19:22:36;16.40;99.90
41080;DHT22;26826;50.718;7.114;2022-09-14T19:32:36;16.30;99.90
41080;DHT22;26826;50.718;7.114;2022-09-14T19:42:37;16.30;99.90
41080;DHT22;26826;50.718;7.114;2022-09-14T19:52:37;16.20;99.90
41080;DHT22;26826;50.718;7.114;2022-09-14T20:02:38;16.30;99.90
41080;DHT22;26826;50.718;7.114;2022-09-14T20:12:38;16.20;99.90
41080;DHT22;26826;50.718;7.114;2022-09-14T20:22:40;16.00;99.90
41080;DHT22;26826;50.718;7.114;2022-09-14T20:32:40;16.10;99.90
41080;DHT22;26826;50.718;7.114;2022-09-14T20:42:41;16.00;99.90
41080;DHT22;26826;50.718;7.114;2022-09-14T20:52:41;15.80;99.90
41080;DHT22;26826;50.718;7.114;2022-09-14T21:02:42;15.90;99.90
41080;DHT22;26826;50.718;7.114;2022-09-14T21:12:43;15.80;99.90
41080;DHT22;26826;50.718;7.114;2022-09-14T21:22:44;15.80;99.90
41080;DHT22;26826;50.718;7.114;2022-09-14T21:32:46;15.70;99.90
41080;DHT22;26826;50.718;7.114;2022-09-14T21:42:47;15.70;99.90
41080;DHT22;26826;50.718;7.114;2022-09-14T21:52:48;15.60;99.90
41080;DHT22;26826;50.718;7.114;2022-09-14T22:02:48;15.70;99.90
41080;DHT22;26826;50.718;7.114;2022-09-14T22:12:49;15.50;99.90
41080;DHT22;26826;50.718;7.114;2022-09-14T22:22:49;15.50;99.90
41080;DHT22;26826;50.718;7.114;2022-09-14T22:32:50;15.40;99.90
41080;DHT22;26826;50.718;7.114;2022-09-14T22:42:50;15.30;99.90
41080;DHT22;26826;50.718;7.114;2022-09-14T22:52:52;15.30;99.90
41080;DHT22;26826;50.718;7.114;2022-09-14T23:02:53;15.20;99.90
41080;DHT22;26826;50.718;7.114;2022-09-14T23:12:53;15.10;99.90
41080;DHT22;26826;50.718;7.114;2022-09-14T23:22:54;15.10;99.90
41080;DHT22;26826;50.718;7.114;2022-09-14T23:32:55;15.10;99.90
41080;DHT22;26826;50.718;7.114;2022-09-14T23:42:56;15.00;99.90
41080;DHT22;26826;50.718;7.114;2022-09-14T23:52:56;15.00;99.90
